createdAt,value
2018-07-04T00:02:30.931Z,100861.00
2018-07-04T00:05:11.228Z,100866.00
2018-07-04T00:07:51.767Z,100872.00
2018-07-04T00:10:32.121Z,100865.00
2018-07-04T00:13:12.745Z,100871.00
2018-07-04T00:15:53.302Z,100872.00
2018-07-04T00:18:33.568Z,100863.00
2018-07-04T00:21:13.938Z,100859.00
2018-07-04T00:23:54.193Z,100878.00
2018-07-04T00:26:34.388Z,100869.00
2018-07-04T00:29:14.653Z,100872.00
2018-07-04T00:31:55.181Z,100865.00
2018-07-04T00:34:35.401Z,100867.00
2018-07-04T00:37:15.786Z,100866.00
2018-07-04T00:39:55.979Z,100863.00
2018-07-04T00:42:36.401Z,100871.00
2018-07-04T00:45:16.476Z,100866.00
2018-07-04T00:47:56.675Z,100863.00
2018-07-04T00:50:36.897Z,100861.00
2018-07-04T00:53:17.277Z,100859.00
2018-07-04T00:55:57.994Z,100860.00
2018-07-04T00:58:38.139Z,100872.00
2018-07-04T01:01:18.465Z,100864.00
2018-07-04T01:03:58.739Z,100865.00
2018-07-04T01:06:39.043Z,100871.00
2018-07-04T01:09:19.085Z,100875.00
2018-07-04T01:11:59.455Z,100877.00
2018-07-04T01:14:39.811Z,100869.00
2018-07-04T01:17:20.221Z,100880.00
2018-07-04T01:20:00.681Z,100878.00
2018-07-04T01:22:41.009Z,100872.00
2018-07-04T01:25:21.465Z,100871.00
2018-07-04T01:28:01.687Z,100862.00
2018-07-04T01:30:41.949Z,100860.00
2018-07-04T01:33:22.455Z,100863.00
2018-07-04T01:36:02.723Z,100865.00
2018-07-04T01:38:43.113Z,100858.00
2018-07-04T01:41:23.433Z,100857.00
2018-07-04T01:44:03.741Z,100844.00
2018-07-04T01:46:44.042Z,100848.00
2018-07-04T01:49:24.283Z,100847.00
2018-07-04T01:52:04.481Z,100847.00
2018-07-04T01:54:44.833Z,100835.00
2018-07-04T01:57:25.181Z,100846.00
2018-07-04T02:00:05.467Z,100844.00
2018-07-04T02:02:45.663Z,100847.00
2018-07-04T02:05:25.761Z,100826.00
2018-07-04T02:08:05.964Z,100832.00
2018-07-04T02:10:46.258Z,100832.00
2018-07-04T02:13:26.558Z,100830.00
2018-07-04T02:16:06.945Z,100837.00
2018-07-04T02:18:47.016Z,100830.00
2018-07-04T02:21:27.343Z,100827.00
2018-07-04T02:24:07.851Z,100834.00
2018-07-04T02:26:48.007Z,100833.00
2018-07-04T02:29:28.224Z,100838.00
2018-07-04T02:32:08.506Z,100850.00
2018-07-04T02:34:48.619Z,100844.00
2018-07-04T02:37:28.791Z,100837.00
2018-07-04T02:40:09.085Z,100816.00
2018-07-04T02:42:49.439Z,100832.00
2018-07-04T02:45:29.556Z,100832.00
2018-07-04T02:48:09.970Z,100825.00
2018-07-04T02:50:50.340Z,100835.00
2018-07-04T02:53:30.439Z,100838.00
2018-07-04T02:56:10.693Z,100829.00
2018-07-04T02:58:51.185Z,100838.00
2018-07-04T03:01:32.181Z,100833.00
2018-07-04T03:04:12.668Z,100829.00
2018-07-04T03:06:53.330Z,100830.00
2018-07-04T03:09:33.972Z,100834.00
2018-07-04T03:12:14.534Z,100825.00
2018-07-04T03:14:55.046Z,100835.00
2018-07-04T03:17:35.871Z,100838.00
2018-07-04T03:20:16.325Z,100830.00
2018-07-04T03:22:56.802Z,100838.00
2018-07-04T03:25:37.584Z,100830.00
2018-07-04T03:28:18.759Z,100824.00
2018-07-04T03:30:59.507Z,100835.00
2018-07-04T03:33:40.475Z,100830.00
2018-07-04T03:36:21.647Z,100820.00
2018-07-04T03:39:02.957Z,100818.00
2018-07-04T03:41:43.882Z,100826.00
2018-07-04T03:44:24.481Z,100819.00
2018-07-04T03:47:05.232Z,100816.00
2018-07-04T03:49:46.663Z,100817.00
2018-07-04T03:52:27.913Z,100822.00
2018-07-04T03:55:08.778Z,100836.00
2018-07-04T03:57:49.264Z,100843.00
2018-07-04T04:00:30.172Z,100830.00
2018-07-04T04:03:11.048Z,100823.00
2018-07-04T04:05:51.621Z,100833.00
2018-07-04T04:08:32.768Z,100836.00
2018-07-04T04:11:13.580Z,100831.00
2018-07-04T04:13:53.907Z,100825.00
2018-07-04T04:16:34.827Z,100827.00
2018-07-04T04:19:20.120Z,100825.00
2018-07-04T04:22:00.800Z,100819.00
2018-07-04T04:24:41.536Z,100826.00
2018-07-04T04:27:22.634Z,100819.00
2018-07-04T04:30:03.792Z,100820.00
2018-07-04T04:32:44.320Z,100812.00
2018-07-04T04:35:24.872Z,100813.00
2018-07-04T04:38:05.474Z,100818.00
2018-07-04T04:40:46.430Z,100813.00
2018-07-04T04:43:27.378Z,100810.00
2018-07-04T04:46:07.960Z,100813.00
2018-07-04T04:48:49.891Z,100814.00
2018-07-04T04:51:30.312Z,100810.00
2018-07-04T04:54:11.374Z,100809.00
2018-07-04T04:56:51.866Z,100802.00
2018-07-04T04:59:32.329Z,100801.00
2018-07-04T05:02:12.945Z,100804.00
2018-07-04T05:04:53.620Z,100810.00
2018-07-04T05:07:33.921Z,100806.00
2018-07-04T05:10:14.768Z,100809.00
2018-07-04T05:12:55.622Z,100811.00
2018-07-04T05:15:36.680Z,100815.00
2018-07-04T05:18:17.554Z,100819.00
2018-07-04T05:20:58.633Z,100813.00
2018-07-04T05:23:39.132Z,100815.00
2018-07-04T05:26:20.082Z,100815.00
2018-07-04T05:29:00.898Z,100815.00
2018-07-04T05:31:41.588Z,100813.00
2018-07-04T05:34:22.750Z,100813.00
2018-07-04T05:37:03.700Z,100814.00
2018-07-04T05:39:44.254Z,100800.00
2018-07-04T05:42:24.568Z,100798.00
2018-07-04T05:45:05.166Z,100797.00
2018-07-04T05:47:45.770Z,100799.00
2018-07-04T05:50:26.294Z,100802.00
2018-07-04T05:53:06.790Z,100798.00
2018-07-04T05:55:47.573Z,100801.00
2018-07-04T05:58:28.584Z,100804.00
2018-07-04T06:01:09.415Z,100800.00
2018-07-04T06:03:49.872Z,100797.00
2018-07-04T06:06:30.374Z,100799.00
2018-07-04T06:09:11.265Z,100797.00
2018-07-04T06:11:51.951Z,100796.00
2018-07-04T06:14:32.635Z,100790.00
2018-07-04T06:17:13.087Z,100791.00
2018-07-04T06:19:53.572Z,100784.00
2018-07-04T06:22:34.052Z,100780.00
2018-07-04T06:25:14.603Z,100781.00
2018-07-04T06:27:55.234Z,100781.00
2018-07-04T06:30:35.907Z,100772.00
2018-07-04T06:33:16.422Z,100780.00
2018-07-04T06:35:57.120Z,100787.00
2018-07-04T06:38:25.622Z,100782.00
2018-07-04T06:40:53.833Z,100779.00
2018-07-04T06:43:21.938Z,100777.00
2018-07-04T06:45:50.685Z,100774.00
2018-07-04T06:48:18.924Z,100775.00
2018-07-04T06:50:47.179Z,100773.00
2018-07-04T06:53:15.625Z,100773.00
2018-07-04T06:55:43.715Z,100765.00
2018-07-04T06:58:12.063Z,100766.00
2018-07-04T07:00:40.370Z,100756.00
2018-07-04T07:03:21.252Z,100765.00
2018-07-04T07:06:01.839Z,100761.00
2018-07-04T07:08:42.494Z,100755.00
2018-07-04T07:11:23.733Z,100758.00
2018-07-04T07:14:04.171Z,100759.00
2018-07-04T07:16:44.936Z,100757.00
2018-07-04T07:19:25.982Z,100765.00
2018-07-04T07:22:06.538Z,100749.00
2018-07-04T07:24:47.555Z,100757.00
2018-07-04T07:27:28.792Z,100748.00
2018-07-04T07:30:10.111Z,100747.00
2018-07-04T07:32:50.979Z,100747.00
2018-07-04T07:35:31.547Z,100745.00
2018-07-04T07:38:12.413Z,100746.00
2018-07-04T07:40:53.125Z,100752.00
2018-07-04T07:43:33.647Z,100749.00
2018-07-04T07:46:14.135Z,100747.00
2018-07-04T07:48:54.828Z,100746.00
2018-07-04T07:51:35.252Z,100755.00
2018-07-04T07:54:15.983Z,100750.00
2018-07-04T07:56:56.550Z,100744.00
2018-07-04T07:59:37.577Z,100737.00
2018-07-04T08:02:18.447Z,100739.00
2018-07-04T08:04:58.780Z,100750.00
2018-07-04T08:07:39.145Z,100747.00
2018-07-04T08:10:19.797Z,100748.00
2018-07-04T08:13:00.719Z,100741.00
2018-07-04T08:15:41.286Z,100742.00
2018-07-04T08:18:21.979Z,100752.00
2018-07-04T08:21:02.645Z,100749.00
2018-07-04T08:23:43.205Z,100738.00
2018-07-04T08:26:23.706Z,100738.00
2018-07-04T08:29:04.766Z,100731.00
2018-07-04T08:31:45.775Z,100730.00
2018-07-04T08:34:26.364Z,100731.00
2018-07-04T08:37:07.133Z,100730.00
2018-07-04T08:39:47.654Z,100731.00
2018-07-04T08:42:28.466Z,100723.00
2018-07-04T08:45:09.029Z,100721.00
2018-07-04T08:47:49.707Z,100722.00
2018-07-04T08:50:30.495Z,100728.00
2018-07-04T08:53:11.110Z,100723.00
2018-07-04T08:55:51.601Z,100732.00
2018-07-04T08:58:32.249Z,100723.00
2018-07-04T09:01:12.917Z,100721.00
2018-07-04T09:03:53.463Z,100713.00
2018-07-04T09:06:34.193Z,100722.00
2018-07-04T09:09:15.103Z,100718.00
2018-07-04T09:11:56.575Z,100719.00
2018-07-04T09:14:37.347Z,100722.00
2018-07-04T09:17:17.957Z,100717.00
2018-07-04T09:19:58.755Z,100717.00
2018-07-04T09:22:39.179Z,100719.00
2018-07-04T09:25:19.922Z,100717.00
2018-07-04T09:28:00.751Z,100726.00
2018-07-04T09:30:41.428Z,100729.00
2018-07-04T09:33:22.210Z,100723.00
2018-07-04T09:36:02.758Z,100719.00
2018-07-04T09:38:43.320Z,100734.00
2018-07-04T09:41:24.071Z,100726.00
2018-07-04T09:44:04.589Z,100717.00
2018-07-04T09:46:45.070Z,100718.00
2018-07-04T09:49:25.679Z,100713.00
2018-07-04T09:52:06.277Z,100711.00
2018-07-04T09:54:46.671Z,100722.00
2018-07-04T09:57:27.323Z,100715.00
2018-07-04T10:00:08.109Z,100706.00
2018-07-04T10:02:48.600Z,100717.00
2018-07-04T10:05:29.128Z,100709.00
2018-07-04T10:08:10.325Z,100715.00
2018-07-04T10:10:51.008Z,100704.00
2018-07-04T10:13:31.357Z,100698.00
2018-07-04T10:16:11.751Z,100701.00
2018-07-04T10:18:52.631Z,100699.00
2018-07-04T10:21:33.386Z,100698.00
2018-07-04T10:24:14.119Z,100687.00
2018-07-04T10:26:55.248Z,100689.00
2018-07-04T10:29:36.002Z,100686.00
2018-07-04T10:32:16.714Z,100693.00
2018-07-04T10:34:57.625Z,100688.00
2018-07-04T10:37:38.359Z,100686.00
2018-07-04T10:40:19.002Z,100683.00
2018-07-04T10:43:00.239Z,100680.00
2018-07-04T10:45:41.420Z,100682.00
2018-07-04T10:48:22.276Z,100678.00
2018-07-04T10:51:03.226Z,100678.00
2018-07-04T10:53:44.064Z,100688.00
2018-07-04T10:56:24.664Z,100669.00
2018-07-04T10:59:05.805Z,100678.00
2018-07-04T11:01:46.107Z,100676.00
2018-07-04T11:04:26.863Z,100669.00
2018-07-04T11:07:07.978Z,100670.00
2018-07-04T11:09:48.714Z,100665.00
2018-07-04T11:12:29.108Z,100668.00
2018-07-04T11:15:09.917Z,100656.00
2018-07-04T11:17:51.510Z,100663.00
2018-07-04T11:20:32.265Z,100655.00
2018-07-04T11:23:12.766Z,100659.00
2018-07-04T11:25:53.862Z,100649.00
2018-07-04T11:28:34.265Z,100651.00
2018-07-04T11:31:14.976Z,100647.00
2018-07-04T11:33:55.426Z,100653.00
2018-07-04T11:36:36.714Z,100645.00
2018-07-04T11:39:17.794Z,100642.00
2018-07-04T11:41:58.573Z,100641.00
2018-07-04T11:44:39.098Z,100646.00
2018-07-04T11:47:07.492Z,100648.00
2018-07-04T11:49:36.057Z,100636.00
2018-07-04T11:52:04.629Z,100638.00
2018-07-04T11:54:32.769Z,100645.00
2018-07-04T11:57:01.588Z,100636.00
2018-07-04T11:59:30.105Z,100636.00
2018-07-04T12:01:59.008Z,100637.00
2018-07-04T12:04:39.667Z,100643.00
2018-07-04T12:07:08.984Z,100631.00
2018-07-04T12:09:38.395Z,100634.00
2018-07-04T12:12:06.771Z,100631.00
2018-07-04T12:14:35.062Z,100636.00
2018-07-04T12:17:03.480Z,100626.00
2018-07-04T12:19:31.698Z,100619.00
2018-07-04T12:22:00.209Z,100630.00
2018-07-04T12:24:28.769Z,100625.00
2018-07-04T12:26:56.943Z,100617.00
2018-07-04T12:29:25.346Z,100623.00
2018-07-04T12:31:53.580Z,100628.00
2018-07-04T12:34:22.194Z,100619.00
2018-07-04T12:36:50.403Z,100624.00
2018-07-04T12:39:18.534Z,100612.00
2018-07-04T12:41:46.645Z,100610.00
2018-07-04T12:44:15.012Z,100614.00
2018-07-04T12:46:43.444Z,100614.00
2018-07-04T12:49:11.695Z,100608.00
2018-07-04T12:51:39.992Z,100613.00
2018-07-04T12:54:13.237Z,100608.00
2018-07-04T12:56:53.856Z,100601.00
2018-07-04T12:59:34.403Z,100596.00
2018-07-04T13:02:15.172Z,100605.00
2018-07-04T13:04:56.294Z,100605.00
2018-07-04T13:07:36.576Z,100597.00
2018-07-04T13:10:17.142Z,100608.00
2018-07-04T13:12:57.709Z,100591.00
2018-07-04T13:15:38.378Z,100588.00
2018-07-04T13:18:19.212Z,100572.00
2018-07-04T13:20:59.808Z,100588.00
2018-07-04T13:23:40.464Z,100582.00
2018-07-04T13:26:20.882Z,100575.00
2018-07-04T13:29:01.529Z,100573.00
2018-07-04T13:31:42.018Z,100580.00
2018-07-04T13:34:22.677Z,100572.00
2018-07-04T13:37:03.128Z,100568.00
2018-07-04T13:39:43.739Z,100561.00
2018-07-04T13:42:24.196Z,100564.00
2018-07-04T13:45:05.066Z,100576.00
2018-07-04T13:47:45.870Z,100567.00
2018-07-04T13:50:26.295Z,100562.00
2018-07-04T13:53:07.274Z,100561.00
2018-07-04T13:55:48.189Z,100563.00
2018-07-04T13:58:28.662Z,100553.00
2018-07-04T14:01:09.057Z,100574.00
2018-07-04T14:03:49.762Z,100568.00
2018-07-04T14:06:30.296Z,100562.00
2018-07-04T14:09:11.273Z,100567.00
2018-07-04T14:11:52.023Z,100552.00
2018-07-04T14:14:32.744Z,100562.00
2018-07-04T14:17:13.285Z,100558.00
2018-07-04T14:19:54.214Z,100556.00
2018-07-04T14:22:34.794Z,100557.00
2018-07-04T14:25:15.584Z,100563.00
2018-07-04T14:27:56.648Z,100561.00
2018-07-04T14:30:37.475Z,100555.00
2018-07-04T14:33:18.142Z,100565.00
2018-07-04T14:35:59.467Z,100554.00
2018-07-04T14:38:40.238Z,100552.00
2018-07-04T14:41:21.010Z,100559.00
2018-07-04T14:44:01.754Z,100553.00
2018-07-04T14:46:42.516Z,100544.00
2018-07-04T14:49:23.428Z,100546.00
2018-07-04T14:52:04.622Z,100544.00
2018-07-04T14:54:45.402Z,100536.00
2018-07-04T14:57:26.438Z,100543.00
2018-07-04T15:00:07.012Z,100545.00
2018-07-04T15:02:47.834Z,100537.00
2018-07-04T15:05:28.580Z,100541.00
2018-07-04T15:08:09.200Z,100535.00
2018-07-04T15:10:49.912Z,100541.00
2018-07-04T15:13:30.530Z,100545.00
2018-07-04T15:16:11.194Z,100537.00
2018-07-04T15:18:51.664Z,100541.00
2018-07-04T15:21:32.520Z,100540.00
2018-07-04T15:24:13.230Z,100536.00
2018-07-04T15:26:54.204Z,100523.00
2018-07-04T15:29:34.766Z,100526.00
2018-07-04T15:32:15.493Z,100517.00
2018-07-04T15:34:56.132Z,100530.00
2018-07-04T15:37:36.579Z,100513.00
2018-07-04T15:40:17.124Z,100509.00
2018-07-04T15:42:58.274Z,100513.00
2018-07-04T15:45:39.062Z,100505.00
2018-07-04T15:48:19.810Z,100511.00
2018-07-04T15:51:00.398Z,100507.00
2018-07-04T15:53:42.030Z,100492.00
2018-07-04T15:56:22.912Z,100496.00
2018-07-04T15:59:03.671Z,100499.00
2018-07-04T16:01:44.419Z,100493.00
2018-07-04T16:04:25.326Z,100494.00
2018-07-04T16:07:06.504Z,100496.00
2018-07-04T16:09:47.416Z,100492.00
2018-07-04T16:12:27.982Z,100487.00
2018-07-04T16:15:09.143Z,100491.00
2018-07-04T16:17:50.194Z,100482.00
2018-07-04T16:20:30.692Z,100494.00
2018-07-04T16:23:13.276Z,100494.00
2018-07-04T16:25:54.770Z,100482.00
2018-07-04T16:28:35.680Z,100491.00
2018-07-04T16:31:16.697Z,100487.00
2018-07-04T16:33:57.223Z,100482.00
2018-07-04T16:36:37.985Z,100488.00
2018-07-04T16:39:18.724Z,100485.00
2018-07-04T16:41:59.712Z,100480.00
2018-07-04T16:44:40.377Z,100482.00
2018-07-04T16:47:21.221Z,100476.00
2018-07-04T16:50:01.785Z,100485.00
2018-07-04T16:52:43.124Z,100487.00
2018-07-04T16:55:24.225Z,100479.00
2018-07-04T16:58:05.731Z,100477.00
2018-07-04T17:00:48.183Z,100469.00
2018-07-04T17:03:29.375Z,100472.00
2018-07-04T17:06:10.663Z,100476.00
2018-07-04T17:08:52.393Z,100462.00
2018-07-04T17:11:33.413Z,100470.00
2018-07-04T17:14:14.117Z,100468.00
2018-07-04T17:16:54.957Z,100473.00
2018-07-04T17:19:35.651Z,100476.00
2018-07-04T17:22:16.642Z,100475.00
2018-07-04T17:24:57.190Z,100472.00
2018-07-04T17:27:37.941Z,100468.00
2018-07-04T17:30:18.683Z,100468.00
2018-07-04T17:32:59.631Z,100475.00
2018-07-04T17:35:40.501Z,100473.00
2018-07-04T17:38:21.917Z,100476.00
2018-07-04T17:41:02.908Z,100477.00
2018-07-04T17:43:44.083Z,100469.00
2018-07-04T17:46:24.801Z,100469.00
2018-07-04T17:49:05.495Z,100464.00
2018-07-04T17:51:47.025Z,100468.00
2018-07-04T17:54:27.677Z,100471.00
2018-07-04T17:57:08.526Z,100476.00
2018-07-04T17:59:49.385Z,100457.00
2018-07-04T18:02:30.267Z,100456.00
2018-07-04T18:05:11.050Z,100464.00
2018-07-04T18:07:51.749Z,100461.00
2018-07-04T18:10:32.881Z,100457.00
2018-07-04T18:13:13.854Z,100461.00
2018-07-04T18:15:54.628Z,100458.00
2018-07-04T18:18:36.052Z,100456.00
2018-07-04T18:21:23.321Z,100460.00
2018-07-04T18:24:05.432Z,100449.00
2018-07-04T18:26:47.090Z,100448.00
2018-07-04T18:29:28.265Z,100466.00
2018-07-04T18:32:10.032Z,100449.00
2018-07-04T18:34:51.179Z,100442.00
2018-07-04T18:37:32.212Z,100451.00
2018-07-04T18:40:13.172Z,100451.00
2018-07-04T18:42:53.923Z,100442.00
2018-07-04T18:45:34.421Z,100443.00
2018-07-04T18:48:15.707Z,100442.00
2018-07-04T18:50:56.863Z,100446.00
2018-07-04T18:53:37.909Z,100440.00
2018-07-04T18:56:19.159Z,100430.00
2018-07-04T18:58:59.657Z,100437.00
2018-07-04T19:01:40.638Z,100437.00
2018-07-04T19:04:21.976Z,100432.00
2018-07-04T19:07:02.833Z,100444.00
2018-07-04T19:09:43.311Z,100438.00
2018-07-04T19:12:24.946Z,100439.00
2018-07-04T19:15:06.960Z,100438.00
2018-07-04T19:17:48.102Z,100440.00
2018-07-04T19:20:29.663Z,100446.00
2018-07-04T19:23:10.819Z,100433.00
2018-07-04T19:25:51.629Z,100439.00
2018-07-04T19:28:32.225Z,100438.00
2018-07-04T19:31:13.108Z,100439.00
2018-07-04T19:33:54.203Z,100446.00
2018-07-04T19:36:35.070Z,100446.00
2018-07-04T19:39:16.100Z,100432.00
2018-07-04T19:41:56.809Z,100441.00
2018-07-04T19:44:37.552Z,100446.00
2018-07-04T19:47:17.732Z,100448.00
2018-07-04T19:49:58.200Z,100458.00
2018-07-04T19:52:38.915Z,100460.00
2018-07-04T19:55:19.211Z,100451.00
2018-07-04T19:57:59.795Z,100462.00
2018-07-04T20:00:43.197Z,100459.00
2018-07-04T20:03:24.173Z,100469.00
2018-07-04T20:06:04.437Z,100468.00
2018-07-04T20:08:44.614Z,100476.00
2018-07-04T20:11:24.905Z,100476.00
2018-07-04T20:14:05.180Z,100480.00
2018-07-04T20:16:45.381Z,100480.00
2018-07-04T20:19:25.715Z,100478.00
2018-07-04T20:22:05.874Z,100492.00
2018-07-04T20:24:46.130Z,100485.00
2018-07-04T20:27:26.241Z,100494.00
2018-07-04T20:30:06.443Z,100501.00
2018-07-04T20:32:47.066Z,100497.00
2018-07-04T20:35:27.398Z,100500.00
2018-07-04T20:38:07.539Z,100501.00
2018-07-04T20:40:47.665Z,100490.00
2018-07-04T20:43:28.002Z,100488.00
2018-07-04T20:46:08.169Z,100493.00
2018-07-04T20:48:48.523Z,100490.00
2018-07-04T20:51:28.808Z,100481.00
2018-07-04T20:54:09.026Z,100490.00
2018-07-04T20:56:49.171Z,100479.00
2018-07-04T20:59:29.448Z,100485.00
2018-07-04T21:02:09.884Z,100483.00
2018-07-04T21:04:50.183Z,100486.00
2018-07-04T21:07:30.409Z,100485.00
2018-07-04T21:10:10.835Z,100491.00
2018-07-04T21:12:51.202Z,100491.00
2018-07-04T21:15:31.423Z,100493.00
2018-07-04T21:18:11.630Z,100505.00
2018-07-04T21:20:52.165Z,100494.00
2018-07-04T21:23:32.514Z,100505.00
2018-07-04T21:26:12.874Z,100489.00
2018-07-04T21:28:53.044Z,100496.00
2018-07-04T21:31:33.489Z,100492.00
2018-07-04T21:34:13.768Z,100499.00
2018-07-04T21:36:54.132Z,100493.00
2018-07-04T21:39:34.409Z,100497.00
2018-07-04T21:42:14.627Z,100491.00
2018-07-04T21:44:54.894Z,100495.00
2018-07-04T21:47:35.040Z,100493.00
2018-07-04T21:50:15.478Z,100502.00
2018-07-04T21:52:55.684Z,100497.00
2018-07-04T21:55:36.109Z,100483.00
2018-07-04T21:58:16.837Z,100483.00
2018-07-04T22:00:57.132Z,100483.00
2018-07-04T22:03:37.577Z,100479.00
2018-07-04T22:06:18.200Z,100481.00
2018-07-04T22:08:58.764Z,100481.00
2018-07-04T22:11:39.076Z,100480.00
2018-07-04T22:14:19.776Z,100478.00
2018-07-04T22:17:00.484Z,100487.00
2018-07-04T22:19:40.804Z,100476.00
2018-07-04T22:22:21.123Z,100469.00
2018-07-04T22:25:01.424Z,100478.00
2018-07-04T22:27:41.610Z,100475.00
2018-07-04T22:30:22.176Z,100474.00
2018-07-04T22:33:02.444Z,100473.00
2018-07-04T22:35:42.670Z,100481.00
2018-07-04T22:38:22.830Z,100468.00
2018-07-04T22:41:03.124Z,100472.00
2018-07-04T22:43:43.471Z,100474.00
2018-07-04T22:46:23.726Z,100477.00
2018-07-04T22:49:03.946Z,100479.00
2018-07-04T22:51:44.639Z,100476.00
2018-07-04T22:54:25.108Z,100478.00
2018-07-04T22:57:05.683Z,100472.00
2018-07-04T22:59:45.886Z,100483.00
2018-07-04T23:02:26.160Z,100487.00
2018-07-04T23:05:06.808Z,100484.00
2018-07-04T23:07:47.179Z,100490.00
2018-07-04T23:10:27.477Z,100492.00
2018-07-04T23:13:07.505Z,100496.00
2018-07-04T23:15:47.715Z,100487.00
2018-07-04T23:18:28.072Z,100493.00
2018-07-04T23:21:08.848Z,100500.00
2018-07-04T23:23:49.664Z,100502.00
2018-07-04T23:26:30.242Z,100511.00
2018-07-04T23:29:10.448Z,100503.00
2018-07-04T23:31:50.760Z,100506.00
2018-07-04T23:34:31.075Z,100504.00
2018-07-04T23:37:11.544Z,100508.00
2018-07-04T23:39:51.934Z,100504.00
2018-07-04T23:42:32.300Z,100504.00
2018-07-04T23:45:12.492Z,100502.00
2018-07-04T23:47:52.620Z,100510.00
2018-07-04T23:50:32.924Z,100506.00
2018-07-04T23:53:13.248Z,100508.00
2018-07-04T23:55:53.546Z,100502.00
2018-07-04T23:58:33.774Z,100506.00
